Time;durP1;ratioP1;P1;durP2;ratioP2;P2;SDS_P1;SDS_P2;PMS_P1;PMS_P2;Temp;Humidity;BMP_temperature;BMP_pressure;BME280_temperature;BME280_humidity;BME280_pressure;Samples;Min_cycle;Max_cycle;Signal;HPM_P1;HPM_P2
2022/08/29 00:00:06;;;;;;;76.15;52.47;;;22.70;56.90;;;;;;5081198;28;20557;-84
2022/08/29 00:02:32;;;;;;;67.13;51.20;;;22.70;56.90;;;;;;5073357;28;20532;-86
2022/08/29 00:04:58;;;;;;;76.32;50.75;;;22.70;56.80;;;;;;5073847;28;20255;-82
2022/08/29 00:07:24;;;;;;;67.93;51.13;;;22.70;57.00;;;;;;5085617;28;20477;-84
2022/08/29 00:09:50;;;;;;;71.63;52.22;;;22.70;57.20;;;;;;5087564;28;20016;-85
2022/08/29 00:12:16;;;;;;;71.45;52.05;;;22.60;56.90;;;;;;5073754;28;20024;-81
2022/08/29 00:14:41;;;;;;;85.03;53.40;;;22.60;56.90;;;;;;5083450;28;20052;-83
2022/08/29 00:17:07;;;;;;;73.60;53.17;;;22.60;57.00;;;;;;5088628;28;20031;-82
2022/08/29 00:19:33;;;;;;;71.35;52.97;;;22.60;56.90;;;;;;5087883;28;20031;-84
2022/08/29 00:21:59;;;;;;;62.65;52.60;;;22.50;56.70;;;;;;5090607;28;20039;-86
2022/08/29 00:24:25;;;;;;;71.93;53.10;;;22.50;56.80;;;;;;5096419;28;20499;-87
2022/08/29 00:26:51;;;;;;;75.38;53.05;;;22.50;57.30;;;;;;5093152;28;20477;-86
2022/08/29 00:29:17;;;;;;;74.88;55.75;;;22.40;56.70;;;;;;5074497;28;20044;-85
2022/08/29 00:31:42;;;;;;;72.97;53.88;;;22.40;56.60;;;;;;5092725;28;20028;-86
2022/08/29 00:34:08;;;;;;;75.63;56.17;;;22.40;56.70;;;;;;5107569;28;20024;-86
2022/08/29 00:36:35;;;;;;;75.03;55.15;;;22.40;56.70;;;;;;5096280;28;20036;-83
2022/08/29 00:39:01;;;;;;;73.57;54.65;;;22.40;56.60;;;;;;5108552;28;20024;-93
2022/08/29 00:41:28;;;;;;;69.03;54.47;;;22.50;56.60;;;;;;5100393;28;20026;-83
2022/08/29 00:43:59;;;;;;;65.10;52.85;;;22.40;56.60;;;;;;5063548;28;20036;-92
2022/08/29 00:47:04;;;;;;;71.32;56.55;;;22.40;56.80;;;;;;5092465;28;20111;-93
2022/08/29 00:49:47;;;;;;;72.70;54.50;;;22.40;56.90;;;;;;5080966;28;20577;-93
2022/08/29 00:52:18;;;;;;;70.50;56.97;;;22.30;57.00;;;;;;5082346;28;20442;-92
2022/08/29 00:54:48;;;;;;;75.03;58.92;;;22.30;57.00;;;;;;5082422;28;20032;-91
2022/08/29 00:57:17;;;;;;;77.78;59.17;;;22.30;57.20;;;;;;5078799;28;20042;-90
2022/08/29 00:59:43;;;;;;;73.07;59.22;;;22.20;57.40;;;;;;5096932;28;20020;-88
2022/08/29 01:02:09;;;;;;;74.53;58.38;;;22.20;57.40;;;;;;5097255;28;20028;-88
2022/08/29 01:04:38;;;;;;;72.38;57.63;;;22.20;57.50;;;;;;5096846;28;20016;-88
2022/08/29 01:07:05;;;;;;;84.88;59.67;;;22.20;57.80;;;;;;5098189;28;20032;-89
2022/08/29 01:09:32;;;;;;;78.60;61.10;;;22.10;57.90;;;;;;5096734;28;20028;-90
2022/08/29 01:12:16;;;;;;;78.35;62.65;;;22.10;58.00;;;;;;5094168;28;20473;-91
2022/08/29 01:14:47;;;;;;;81.13;62.15;;;22.10;58.20;;;;;;5105920;28;20040;-89
2022/08/29 01:17:18;;;;;;;84.57;64.10;;;22.10;58.30;;;;;;5093246;28;20084;-88
2022/08/29 01:20:11;;;;;;;74.20;61.10;;;22.10;58.30;;;;;;5103379;28;20099;-89
2022/08/29 01:22:57;;;;;;;82.60;63.20;;;22.10;58.30;;;;;;5110107;28;20046;-90
2022/08/29 01:25:28;;;;;;;79.05;62.55;;;22.00;58.30;;;;;;5100124;28;20392;-89
2022/08/29 01:28:06;;;;;;;85.13;62.67;;;22.00;58.40;;;;;;5099160;28;20070;-90
2022/08/29 01:30:32;;;;;;;76.88;60.60;;;22.00;58.30;;;;;;5101723;28;20093;-90
2022/08/29 01:32:59;;;;;;;71.53;57.97;;;22.00;58.30;;;;;;5088530;28;20020;-89
2022/08/29 01:35:26;;;;;;;73.47;58.63;;;21.90;58.20;;;;;;5117601;28;20016;-89
2022/08/29 01:37:52;;;;;;;74.40;59.35;;;21.90;58.20;;;;;;5079389;28;20115;-89
2022/08/29 01:40:19;;;;;;;73.47;57.50;;;21.90;58.20;;;;;;5083265;28;20054;-88
2022/08/29 01:42:45;;;;;;;76.40;56.35;;;21.90;58.20;;;;;;5102203;28;20020;-88
2022/08/29 01:45:11;;;;;;;70.50;54.80;;;21.80;58.10;;;;;;5087765;28;20020;-88
2022/08/29 01:47:38;;;;;;;71.20;53.60;;;21.80;58.00;;;;;;5093160;28;20017;-89
2022/08/29 01:50:10;;;;;;;78.03;54.90;;;21.90;58.00;;;;;;5078835;28;20032;-90
2022/08/29 01:52:36;;;;;;;70.25;54.25;;;21.90;58.00;;;;;;5107106;28;20027;-89
2022/08/29 01:55:03;;;;;;;68.78;52.67;;;21.80;58.10;;;;;;5097204;28;20032;-92
2022/08/29 01:57:29;;;;;;;69.20;52.30;;;21.80;58.10;;;;;;5104009;28;20039;-92
2022/08/29 01:59:55;;;;;;;65.07;50.47;;;21.80;58.20;;;;;;5079384;28;20039;-94
2022/08/29 02:02:27;;;;;;;62.37;50.37;;;21.70;58.30;;;;;;5081573;28;20020;-91
2022/08/29 02:04:57;;;;;;;60.78;49.72;;;21.70;58.50;;;;;;5073604;28;20031;-90
2022/08/29 02:07:24;;;;;;;67.63;49.90;;;21.70;58.50;;;;;;5107341;28;20016;-91
2022/08/29 02:09:51;;;;;;;61.13;46.92;;;21.70;58.60;;;;;;5097796;28;20027;-90
2022/08/29 02:12:19;;;;;;;61.42;45.88;;;21.60;58.40;;;;;;5104642;28;20028;-89
2022/08/29 02:14:45;;;;;;;54.67;42.42;;;21.60;58.40;;;;;;5110845;28;20065;-89
2022/08/29 02:17:11;;;;;;;56.45;41.85;;;21.60;58.40;;;;;;5104372;28;20039;-91
2022/08/29 02:19:38;;;;;;;52.40;37.45;;;21.60;58.50;;;;;;5101747;28;20448;-90
2022/08/29 02:22:06;;;;;;;53.13;40.47;;;21.60;58.30;;;;;;5099500;28;20023;-94
2022/08/29 02:24:32;;;;;;;49.75;37.00;;;21.60;58.30;;;;;;5079053;28;20028;-90
2022/08/29 02:26:58;;;;;;;48.60;36.60;;;21.70;58.20;;;;;;5078830;28;20027;-91
2022/08/29 02:29:25;;;;;;;47.53;36.28;;;21.70;58.10;;;;;;5079103;28;20477;-91
2022/08/29 02:31:51;;;;;;;42.35;32.70;;;21.70;58.10;;;;;;5091165;28;20004;-91
2022/08/29 02:34:17;;;;;;;41.97;30.73;;;21.70;58.00;;;;;;5092542;28;20020;-92
2022/08/29 02:36:43;;;;;;;42.58;30.40;;;21.70;58.00;;;;;;5096282;28;20082;-91
2022/08/29 02:39:09;;;;;;;37.75;30.05;;;21.70;58.00;;;;;;5081297;28;20111;-93
2022/08/29 02:41:35;;;;;;;38.63;31.27;;;21.70;58.10;;;;;;5098315;28;20028;-92
2022/08/29 02:44:02;;;;;;;38.05;29.88;;;21.70;58.00;;;;;;5080656;28;20516;-91
2022/08/29 02:46:28;;;;;;;42.78;29.70;;;21.70;58.00;;;;;;5102263;28;20350;-89
2022/08/29 02:48:54;;;;;;;35.30;28.08;;;21.70;58.00;;;;;;5081839;28;20111;-90
2022/08/29 02:51:29;;;;;;;40.55;29.25;;;21.70;57.90;;;;;;5111008;28;20020;-89
2022/08/29 02:53:55;;;;;;;35.22;27.27;;;21.70;57.90;;;;;;5085878;28;20066;-91
2022/08/29 02:56:22;;;;;;;31.60;26.23;;;21.70;57.80;;;;;;5061051;28;20489;-92
2022/08/29 02:58:51;;;;;;;38.73;26.53;;;21.70;57.70;;;;;;5077543;28;20031;-91
2022/08/29 03:01:21;;;;;;;42.17;24.95;;;21.70;57.50;;;;;;5077419;28;20459;-92
2022/08/29 03:03:49;;;;;;;38.08;26.95;;;21.80;57.70;;;;;;5077935;28;20440;-92
2022/08/29 03:06:18;;;;;;;36.78;24.60;;;21.80;57.60;;;;;;5097520;28;20029;-92
2022/08/29 03:08:44;;;;;;;35.67;24.65;;;21.80;57.50;;;;;;5080782;28;20028;-90
2022/08/29 03:11:11;;;;;;;44.75;25.23;;;21.80;57.70;;;;;;5060033;28;20101;-92
2022/08/29 03:13:37;;;;;;;;;;;21.90;57.50;;;;;;5072047;28;20031;-92
2022/08/29 03:16:04;;;;;;;28.48;22.40;;;21.90;57.10;;;;;;5085594;28;20353;-93
2022/08/29 03:18:31;;;;;;;32.75;22.20;;;21.80;57.20;;;;;;5092527;28;20011;-92
2022/08/29 03:20:57;;;;;;;33.23;24.13;;;21.80;57.30;;;;;;5086919;28;20035;-91
2022/08/29 03:23:23;;;;;;;32.20;22.38;;;21.80;57.30;;;;;;5110152;28;20115;-90
2022/08/29 03:25:49;;;;;;;35.22;22.85;;;21.80;57.30;;;;;;5107023;28;20024;-91
2022/08/29 03:28:15;;;;;;;26.42;21.23;;;21.70;57.50;;;;;;5069022;28;20032;-94
2022/08/29 03:30:42;;;;;;;25.83;20.17;;;21.70;57.70;;;;;;5046413;28;20043;-93
2022/08/29 03:33:07;;;;;;;29.85;21.63;;;21.60;57.70;;;;;;5026304;28;20029;-92
2022/08/29 03:35:34;;;;;;;32.90;23.40;;;21.70;57.80;;;;;;5050278;28;20124;-91
2022/08/29 03:38:00;;;;;;;27.05;21.05;;;21.70;57.70;;;;;;5023108;28;20053;-92
2022/08/29 03:40:26;;;;;;;30.00;22.00;;;21.70;57.80;;;;;;5005327;28;20017;-93
2022/08/29 03:42:58;;;;;;;32.90;22.52;;;21.70;57.80;;;;;;5036261;28;20026;-94
2022/08/29 03:45:25;;;;;;;33.40;23.70;;;21.80;58.10;;;;;;5012790;28;20018;-91
2022/08/29 03:47:52;;;;;;;29.45;22.90;;;21.80;58.00;;;;;;5015022;28;20029;-94
2022/08/29 03:50:20;;;;;;;36.47;23.50;;;21.90;57.90;;;;;;5032322;28;20697;-93
2022/08/29 03:52:51;;;;;;;31.55;22.80;;;21.90;57.70;;;;;;5024025;28;20089;-92
2022/08/29 03:55:19;;;;;;;40.67;23.25;;;22.00;57.60;;;;;;4995565;28;20526;-90
2022/08/29 03:57:45;;;;;;;32.75;23.50;;;22.00;57.50;;;;;;5014800;28;20025;-90
2022/08/29 04:00:15;;;;;;;39.72;25.08;;;22.10;57.40;;;;;;5029592;28;20034;-90
2022/08/29 04:02:43;;;;;;;34.83;26.52;;;22.30;57.00;;;;;;5011993;28;20037;-94
2022/08/29 04:05:09;;;;;;;37.47;26.83;;;22.40;56.70;;;;;;5017681;28;20580;-91
2022/08/29 04:07:51;;;;;;;47.72;27.13;;;22.40;56.50;;;;;;5041193;28;20484;-90
2022/08/29 04:10:24;;;;;;;38.85;25.30;;;22.50;56.40;;;;;;5033111;28;20040;-92
2022/08/29 04:12:50;;;;;;;36.88;27.88;;;22.40;56.20;;;;;;5017816;28;20022;-89
2022/08/29 04:15:17;;;;;;;44.20;26.37;;;22.40;56.60;;;;;;5036940;28;20056;-90
2022/08/29 04:17:44;;;;;;;33.87;26.63;;;22.30;56.60;;;;;;5086789;28;20054;-88
2022/08/29 04:20:11;;;;;;;37.23;25.83;;;22.30;56.90;;;;;;5115184;28;20252;-91
2022/08/29 04:22:40;;;;;;;39.92;25.70;;;22.30;57.10;;;;;;5094682;28;20285;-89
2022/08/29 04:25:09;;;;;;;35.58;23.40;;;22.30;57.10;;;;;;5100588;28;20065;-88
2022/08/29 04:27:38;;;;;;;37.13;26.02;;;22.30;56.90;;;;;;5104310;28;20047;-90
2022/08/29 04:30:06;;;;;;;34.72;25.33;;;22.30;57.00;;;;;;5071631;28;20025;-89
2022/08/29 04:32:32;;;;;;;39.08;26.80;;;22.30;56.80;;;;;;5106441;28;20384;-90
2022/08/29 04:34:58;;;;;;;39.97;26.23;;;22.20;56.90;;;;;;5100175;28;20032;-89
2022/08/29 04:37:25;;;;;;;37.53;27.13;;;22.30;57.00;;;;;;5098155;28;20028;-90
2022/08/29 04:39:51;;;;;;;40.00;26.67;;;22.40;56.80;;;;;;5098295;28;20074;-89
2022/08/29 04:42:18;;;;;;;40.75;28.17;;;22.50;56.50;;;;;;5102005;28;20016;-89
2022/08/29 04:44:45;;;;;;;35.17;28.08;;;22.60;56.20;;;;;;5082116;28;20097;-89
2022/08/29 04:47:10;;;;;;;35.13;25.90;;;22.80;55.50;;;;;;5085075;28;20032;-88
2022/08/29 04:49:36;;;;;;;35.17;26.83;;;22.90;55.10;;;;;;5100843;28;20016;-89
2022/08/29 04:52:02;;;;;;;42.60;28.90;;;23.20;54.90;;;;;;5105567;28;20393;-89
2022/08/29 04:54:28;;;;;;;41.65;27.88;;;23.20;54.80;;;;;;5082668;28;20035;-91
2022/08/29 04:56:54;;;;;;;33.60;25.23;;;23.10;55.00;;;;;;5098426;28;20032;-86
2022/08/29 04:59:20;;;;;;;35.38;27.88;;;23.00;54.80;;;;;;5083169;28;20042;-89
2022/08/29 05:01:46;;;;;;;33.20;28.33;;;23.20;55.10;;;;;;5086671;28;20020;-88
2022/08/29 05:04:12;;;;;;;40.13;30.30;;;23.50;54.50;;;;;;5083044;28;20028;-89
2022/08/29 05:06:38;;;;;;;42.58;31.50;;;23.70;53.70;;;;;;5084523;28;20027;-90
2022/08/29 05:09:04;;;;;;;38.97;29.13;;;24.00;52.90;;;;;;5082694;28;20476;-90
2022/08/29 05:11:31;;;;;;;43.80;30.20;;;24.20;52.70;;;;;;5106526;28;20017;-94
2022/08/29 05:13:59;;;;;;;42.53;30.98;;;24.20;52.40;;;;;;5102378;28;20016;-93
2022/08/29 05:16:25;;;;;;;45.65;30.52;;;24.10;52.60;;;;;;5086509;28;20048;-92
2022/08/29 05:18:51;;;;;;;50.83;32.25;;;24.10;52.80;;;;;;5103317;28;20032;-92
2022/08/29 05:21:26;;;;;;;45.03;31.63;;;24.30;52.50;;;;;;5079673;28;20107;-90
2022/08/29 05:23:55;;;;;;;43.92;31.63;;;24.50;52.00;;;;;;5090509;28;20442;-93
2022/08/29 05:26:21;;;;;;;45.72;32.22;;;24.50;51.90;;;;;;5095519;28;20020;-91
2022/08/29 05:28:47;;;;;;;46.63;33.80;;;24.60;52.00;;;;;;5093823;28;20020;-90
2022/08/29 05:31:13;;;;;;;40.80;32.22;;;24.60;51.70;;;;;;5085074;28;20032;-88
2022/08/29 05:33:39;;;;;;;49.88;31.77;;;24.60;51.60;;;;;;5097086;28;20079;-89
2022/08/29 05:36:05;;;;;;;47.57;31.70;;;24.50;52.00;;;;;;5096575;28;20097;-91
2022/08/29 05:38:32;;;;;;;49.22;33.17;;;24.50;52.00;;;;;;5075929;28;20107;-91
2022/08/29 05:40:58;;;;;;;45.90;31.13;;;24.50;52.10;;;;;;5092274;28;20019;-87
2022/08/29 05:43:24;;;;;;;45.58;31.77;;;24.50;52.20;;;;;;5075917;28;20416;-89
2022/08/29 05:46:00;;;;;;;42.10;32.00;;;24.40;52.50;;;;;;5079096;28;20028;-90
2022/08/29 05:48:26;;;;;;;44.57;32.03;;;24.40;52.50;;;;;;5091005;28;20012;-90
2022/08/29 05:50:52;;;;;;;42.65;30.85;;;24.40;52.40;;;;;;5081989;28;20081;-88
2022/08/29 05:53:18;;;;;;;53.55;34.15;;;24.30;52.70;;;;;;5104294;28;20039;-89
2022/08/29 05:55:44;;;;;;;51.08;31.95;;;24.40;52.50;;;;;;5102012;28;20052;-89
2022/08/29 05:58:11;;;;;;;56.25;32.40;;;24.50;52.30;;;;;;5097995;28;20016;-90
2022/08/29 06:00:42;;;;;;;45.20;32.28;;;24.70;52.10;;;;;;5078198;28;20379;-89
2022/08/29 06:03:09;;;;;;;42.25;31.38;;;25.70;51.00;;;;;;5099238;28;20123;-92
2022/08/29 06:05:35;;;;;;;54.83;34.35;;;27.10;48.80;;;;;;5098490;28;20073;-91
2022/08/29 06:08:01;;;;;;;49.17;34.05;;;27.60;47.30;;;;;;5081121;28;20374;-91
2022/08/29 06:10:27;;;;;;;49.17;33.42;;;27.60;46.00;;;;;;5098817;28;20028;-89
2022/08/29 06:12:53;;;;;;;43.85;34.03;;;27.20;46.20;;;;;;5109797;28;20020;-91
2022/08/29 06:15:19;;;;;;;46.80;33.70;;;27.20;46.20;;;;;;5106150;28;20052;-90
2022/08/29 06:17:44;;;;;;;46.92;34.53;;;27.60;45.70;;;;;;5098395;28;20024;-89
2022/08/29 06:20:11;;;;;;;56.28;35.15;;;27.80;45.10;;;;;;5089917;28;20048;-88
2022/08/29 06:22:38;;;;;;;44.38;33.25;;;28.00;44.90;;;;;;5088799;28;20023;-89
2022/08/29 06:25:05;;;;;;;47.63;34.35;;;28.10;44.80;;;;;;5099419;28;20033;-89
2022/08/29 06:27:30;;;;;;;;;;;28.00;44.60;;;;;;5097052;28;20146;-89
2022/08/29 06:29:56;;;;;;;51.23;34.57;;;27.90;45.20;;;;;;5098348;28;20330;-92
2022/08/29 06:32:23;;;;;;;50.17;34.47;;;27.90;45.00;;;;;;5083758;28;20047;-90
2022/08/29 06:34:49;;;;;;;42.60;33.27;;;27.90;45.00;;;;;;5085799;28;20046;-89
2022/08/29 06:37:14;;;;;;;58.58;36.72;;;28.10;44.70;;;;;;5093725;28;20301;-90
2022/08/29 06:39:42;;;;;;;42.92;33.40;;;28.40;44.40;;;;;;5088366;28;20541;-88
2022/08/29 06:42:08;;;;;;;49.75;34.53;;;28.90;44.10;;;;;;5107088;28;20038;-88
2022/08/29 06:44:34;;;;;;;45.25;36.42;;;29.00;43.40;;;;;;5102878;28;20036;-87
2022/08/29 06:47:01;;;;;;;56.90;36.63;;;28.70;43.50;;;;;;5099944;28;20020;-86
2022/08/29 06:49:27;;;;;;;49.75;35.60;;;28.30;44.90;;;;;;5079918;28;20052;-84
2022/08/29 06:51:53;;;;;;;43.35;37.05;;;28.20;44.90;;;;;;5075740;28;20489;-86
2022/08/29 06:54:21;;;;;;;57.00;37.15;;;28.30;44.60;;;;;;5091904;28;20032;-86
2022/08/29 06:56:48;;;;;;;49.42;36.38;;;28.20;44.60;;;;;;5092348;28;20044;-85
2022/08/29 06:59:14;;;;;;;45.15;36.72;;;28.10;44.80;;;;;;5075714;28;20020;-85
2022/08/29 07:01:41;;;;;;;49.42;37.15;;;27.90;45.00;;;;;;5093801;28;20080;-86
2022/08/29 07:04:07;;;;;;;47.65;36.55;;;27.70;45.40;;;;;;5092498;28;20048;-86
2022/08/29 07:06:35;;;;;;;50.03;36.00;;;27.60;45.70;;;;;;5075434;28;20039;-87
2022/08/29 07:09:02;;;;;;;48.42;37.03;;;27.40;45.50;;;;;;5091900;28;20028;-86
2022/08/29 07:11:29;;;;;;;53.58;36.53;;;27.50;46.10;;;;;;5092253;28;20032;-87
2022/08/29 07:14:00;;;;;;;51.90;36.58;;;28.20;45.30;;;;;;5091958;28;20020;-85
2022/08/29 07:16:27;;;;;;;48.53;34.90;;;29.30;44.00;;;;;;5092367;28;20032;-86
2022/08/29 07:18:54;;;;;;;53.75;38.17;;;31.10;42.10;;;;;;5073624;28;20024;-84
2022/08/29 07:21:22;;;;;;;46.88;36.13;;;31.10;41.10;;;;;;5093456;28;20104;-86
2022/08/29 07:23:49;;;;;;;46.80;35.42;;;31.40;40.70;;;;;;5094413;28;20238;-85
2022/08/29 07:26:18;;;;;;;50.65;36.33;;;31.30;40.40;;;;;;5096008;28;20096;-85
2022/08/29 07:28:47;;;;;;;53.88;36.60;;;31.10;40.70;;;;;;5095892;28;20020;-86
2022/08/29 07:31:12;;;;;;;48.53;35.97;;;31.70;40.30;;;;;;5080490;28;20028;-87
2022/08/29 07:33:39;;;;;;;54.47;37.23;;;;;;;;;;5101371;28;20072;-85
2022/08/29 07:36:05;;;;;;;54.75;37.45;;;32.00;39.60;;;;;;5095743;28;20032;-85
2022/08/29 07:38:31;;;;;;;49.25;34.50;;;32.70;39.20;;;;;;5093309;28;20062;-86
2022/08/29 07:41:04;;;;;;;47.05;34.90;;;33.50;38.60;;;;;;5094009;28;20461;-89
2022/08/29 07:43:30;;;;;;;44.95;33.15;;;34.40;37.40;;;;;;5093302;28;20020;-85
2022/08/29 07:45:56;;;;;;;44.35;34.60;;;35.10;36.70;;;;;;5092688;28;20040;-85
2022/08/29 07:48:23;;;;;;;49.55;33.63;;;36.50;35.80;;;;;;5097232;28;20028;-85
2022/08/29 07:50:50;;;;;;;43.72;34.13;;;36.70;35.10;;;;;;5089527;28;20100;-88
2022/08/29 07:53:16;;;;;;;48.80;36.38;;;;;;;;;;5092756;28;20386;-86
2022/08/29 07:55:43;;;;;;;48.55;33.75;;;;;;;;;;5092399;28;20049;-86
2022/08/29 07:58:32;;;;;;;45.35;31.63;;;;;;;;;;5093161;28;20032;-87
2022/08/29 08:00:58;;;;;;;42.90;31.23;;;;;;;;;;5082651;28;20130;-85
2022/08/29 08:03:25;;;;;;;43.80;30.67;;;;;;;;;;5096005;28;20020;-85
2022/08/29 08:05:52;;;;;;;41.03;28.45;;;;;;;;;;5100861;28;20020;-85
2022/08/29 08:08:18;;;;;;;;;;;;;;;;;;5093454;28;20493;-87
2022/08/29 08:10:44;;;;;;;33.15;24.60;;;;;;;;;;5088457;28;20018;-86
2022/08/29 08:13:10;;;;;;;32.70;22.17;;;;;;;;;;5082934;28;20017;-85
2022/08/29 08:15:37;;;;;;;36.50;23.05;;;;;;;;;;5073054;28;20044;-86
2022/08/29 08:18:06;;;;;;;31.60;20.73;;;;;;;;;;5075601;28;20485;-85
2022/08/29 08:20:32;;;;;;;24.52;19.08;;;;;;;;;;5083492;28;20068;-87
2022/08/29 08:22:58;;;;;;;28.95;19.92;;;37.30;34.90;;;;;;5107066;28;20028;-88
2022/08/29 08:25:25;;;;;;;28.52;18.92;;;39.60;31.50;;;;;;5095441;28;20488;-85
2022/08/29 08:27:51;;;;;;;33.45;17.63;;;39.60;31.30;;;;;;5095134;28;20020;-86
2022/08/29 08:30:17;;;;;;;28.23;15.50;;;39.50;31.20;;;;;;5097522;28;20031;-86
2022/08/29 08:32:44;;;;;;;23.50;12.20;;;39.10;31.20;;;;;;5091430;28;20762;-86
2022/08/29 08:35:11;;;;;;;23.77;11.32;;;38.60;31.40;;;;;;5092251;28;20032;-86
2022/08/29 08:37:38;;;;;;;22.33;9.27;;;37.80;32.10;;;;;;5094585;28;20448;-84
2022/08/29 08:40:06;;;;;;;19.23;9.45;;;37.90;32.20;;;;;;5094620;28;20464;-86
2022/08/29 08:42:42;;;;;;;21.05;7.90;;;38.70;31.80;;;;;;5092187;28;20099;-85
2022/08/29 08:45:09;;;;;;;25.48;9.57;;;;;;;;;;5093212;28;20374;-87
2022/08/29 08:47:48;;;;;;;21.10;7.65;;;;;;;;;;5074203;28;20023;-86
2022/08/29 08:50:26;;;;;;;27.02;7.28;;;;;;;;;;5092610;28;20032;-88
2022/08/29 08:53:07;;;;;;;20.70;6.40;;;;;;;;;;5092094;28;20388;-88
2022/08/29 08:55:40;;;;;;;23.42;7.75;;;;;;;;;;5091533;28;20107;-86
2022/08/29 08:58:13;;;;;;;20.77;6.63;;;;;;;;;;5092184;28;20044;-86
2022/08/29 09:00:42;;;;;;;27.25;7.28;;;;;;;;;;5091998;28;20077;-87
2022/08/29 09:03:16;;;;;;;17.35;6.25;;;;;;;;;;5094654;28;20032;-86
2022/08/29 09:05:48;;;;;;;26.05;6.45;;;;;;;;;;5080932;28;20142;-87
2022/08/29 09:08:23;;;;;;;33.88;7.93;;;;;;;;;;5099754;28;20115;-86
2022/08/29 09:11:08;;;;;;;32.10;7.55;;;;;;;;;;5097475;28;20024;-87
2022/08/29 09:13:47;;;;;;;21.02;6.03;;;;;;;;;;5093101;28;20342;-87
2022/08/29 09:16:26;;;;;;;20.20;6.13;;;37.60;31.80;;;;;;5081045;28;20139;-89
2022/08/29 09:18:55;;;;;;;15.10;5.90;;;35.60;35.10;;;;;;5098641;28;20047;-87
2022/08/29 09:21:22;;;;;;;27.23;7.35;;;34.70;36.30;;;;;;5096893;28;20020;-87
2022/08/29 09:23:53;;;;;;;15.75;6.45;;;34.30;36.90;;;;;;5098192;28;20529;-88
2022/08/29 09:26:21;;;;;;;22.33;7.07;;;33.90;37.50;;;;;;5077114;28;20030;-85
2022/08/29 09:28:48;;;;;;;31.67;7.50;;;33.60;37.80;;;;;;5094660;28;20358;-85
2022/08/29 09:31:15;;;;;;;29.00;7.65;;;;;;;;;;5096134;28;20024;-87
2022/08/29 09:33:45;;;;;;;25.88;7.25;;;32.50;39.00;;;;;;5096852;28;20012;-88
2022/08/29 09:36:12;;;;;;;24.27;6.80;;;31.40;40.70;;;;;;5101345;28;20043;-88
2022/08/29 09:38:38;;;;;;;20.92;7.00;;;30.90;41.40;;;;;;5098274;28;20052;-87
2022/08/29 09:41:14;;;;;;;22.40;7.60;;;30.50;42.00;;;;;;5097101;28;20078;-86
2022/08/29 09:43:39;;;;;;;20.77;6.68;;;30.90;41.90;;;;;;5095836;28;20027;-87
2022/08/29 09:46:11;;;;;;;21.77;6.00;;;31.80;41.10;;;;;;5078364;28;20024;-88
2022/08/29 09:48:46;;;;;;;20.38;5.75;;;33.20;39.90;;;;;;5096449;28;20052;-87
2022/08/29 09:51:14;;;;;;;20.45;6.20;;;34.50;38.20;;;;;;5097312;28;20024;-86
2022/08/29 09:53:41;;;;;;;9.63;4.65;;;35.30;37.20;;;;;;5099494;28;20042;-87
2022/08/29 09:56:16;;;;;;;21.83;6.55;;;36.60;35.60;;;;;;5105792;28;20031;-89
2022/08/29 09:58:42;;;;;;;14.95;5.40;;;37.00;34.90;;;;;;5104826;28;20088;-85
2022/08/29 10:01:18;;;;;;;19.45;5.90;;;37.50;34.50;;;;;;5087770;28;20115;-88
2022/08/29 10:04:01;;;;;;;23.88;6.57;;;38.00;34.20;;;;;;5098896;28;20035;-89
2022/08/29 10:06:31;;;;;;;12.98;4.88;;;38.70;33.80;;;;;;5097345;28;20020;-87
2022/08/29 10:09:05;;;;;;;18.27;6.63;;;37.20;33.30;;;;;;5096703;28;20445;-87
2022/08/29 10:12:02;;;;;;;19.98;6.75;;;35.90;35.10;;;;;;5096861;28;20028;-85
2022/08/29 10:14:37;;;;;;;19.23;5.47;;;35.90;35.50;;;;;;5079362;28;20036;-90
2022/08/29 10:20:11;;;;;;;12.05;5.15;;;35.50;35.40;;;;;;5054630;28;20024;-87
2022/08/29 10:22:46;;;;;;;16.33;5.78;;;34.70;36.10;;;;;;5093422;28;20392;-87
2022/08/29 10:25:40;;;;;;;16.63;5.13;;;33.70;37.00;;;;;;5088765;28;20031;-88
2022/08/29 10:28:41;;;;;;;17.83;5.53;;;32.50;37.80;;;;;;5048492;28;20121;-83
2022/08/29 10:31:18;;;;;;;16.60;6.30;;;30.90;40.00;;;;;;5098516;28;20020;-85
2022/08/29 10:33:56;;;;;;;15.00;6.25;;;30.00;41.80;;;;;;5075002;28;20035;-85
2022/08/29 10:36:34;;;;;;;18.83;6.90;;;29.40;42.90;;;;;;5081232;28;20032;-87
2022/08/29 10:39:15;;;;;;;20.38;6.90;;;29.30;43.60;;;;;;5085164;28;20017;-87
2022/08/29 10:42:01;;;;;;;26.42;6.70;;;28.90;44.10;;;;;;5088012;28;20028;-87
2022/08/29 10:44:53;;;;;;;22.77;6.22;;;28.60;44.90;;;;;;5094399;28;20051;-86
2022/08/29 10:47:39;;;;;;;22.65;6.82;;;;;;;;;;5094526;28;20032;-86
2022/08/29 10:50:26;;;;;;;18.55;5.93;;;;;;;;;;5094159;28;20028;-86
2022/08/29 10:52:55;;;;;;;10.20;5.60;;;;;;;;;;5087262;28;20027;-85
2022/08/29 10:55:42;;;;;;;19.33;6.07;;;;;;;;;;5094491;28;20097;-85
2022/08/29 10:58:08;;;;;;;;;;;;;;;;;;5092008;28;20095;-85
2022/08/29 11:00:53;;;;;;;23.73;6.50;;;;;;;;;;5101312;28;20238;-85
2022/08/29 11:03:27;;;;;;;16.48;6.18;;;;;;;;;;5097563;28;20355;-85
2022/08/29 11:06:08;;;;;;;13.88;6.60;;;;;;;;;;5068773;28;20048;-85
2022/08/29 11:08:44;;;;;;;16.65;5.80;;;28.20;45.40;;;;;;5086823;28;20112;-84
2022/08/29 11:11:13;;;;;;;16.30;6.18;;;27.30;48.60;;;;;;5100600;28;20027;-83
2022/08/29 11:14:01;;;;;;;14.73;5.53;;;27.00;48.80;;;;;;5101113;28;20063;-86
2022/08/29 11:16:42;;;;;;;15.10;5.75;;;27.00;49.40;;;;;;5066182;28;20424;-86
2022/08/29 11:19:16;;;;;;;13.50;5.82;;;27.10;49.40;;;;;;5075084;28;20012;-85
2022/08/29 11:21:48;;;;;;;12.55;5.53;;;27.20;49.10;;;;;;5066607;28;20032;-85
2022/08/29 11:24:19;;;;;;;21.33;6.63;;;27.00;49.80;;;;;;5057552;28;20025;-86
2022/08/29 11:27:04;;;;;;;19.35;7.20;;;26.90;50.50;;;;;;5065063;28;20343;-85
2022/08/29 11:29:42;;;;;;;14.85;6.95;;;27.10;50.70;;;;;;5072594;28;20020;-84
2022/08/29 11:32:34;;;;;;;14.48;5.95;;;27.40;50.50;;;;;;5071512;28;20029;-86
2022/08/29 11:35:22;;;;;;;16.08;6.45;;;27.20;50.50;;;;;;5060470;28;20047;-85
2022/08/29 11:38:21;;;;;;;15.60;5.93;;;27.10;50.70;;;;;;5075958;28;20043;-86
2022/08/29 11:41:05;;;;;;;15.05;6.32;;;;;;;;;;5078490;28;20024;-86
2022/08/29 11:43:58;;;;;;;16.92;7.20;;;;;;;;;;5077515;28;20044;-86
2022/08/29 11:46:51;;;;;;;17.88;7.80;;;27.10;50.00;;;;;;5087293;28;20083;-85
2022/08/29 11:49:32;;;;;;;15.13;7.05;;;26.90;50.00;;;;;;5051715;28;20051;-85
2022/08/29 11:52:07;;;;;;;19.35;7.35;;;27.00;50.00;;;;;;5072970;28;20024;-85
2022/08/29 11:54:33;;;;;;;19.20;6.80;;;27.10;50.20;;;;;;5076307;28;20029;-86
2022/08/29 11:56:59;;;;;;;17.67;7.07;;;27.20;50.30;;;;;;5073321;28;20036;-85
2022/08/29 11:59:48;;;;;;;16.83;6.15;;;27.10;50.30;;;;;;5074311;28;20031;-86
2022/08/29 12:02:27;;;;;;;10.20;5.80;;;;;;;;;;5052993;28;20021;-85
2022/08/29 12:05:07;;;;;;;17.88;7.15;;;26.80;50.40;;;;;;5064092;28;20024;-86
2022/08/29 12:07:48;;;;;;;12.63;4.72;;;26.20;52.80;;;;;;5053487;28;20070;-85
2022/08/29 12:10:51;;;;;;;23.45;7.50;;;26.00;53.30;;;;;;5075514;28;20028;-86
2022/08/29 12:13:52;;;;;;;22.33;7.88;;;25.90;53.60;;;;;;5071240;28;20397;-85
2022/08/29 12:16:42;;;;;;;21.85;7.45;;;25.90;53.10;;;;;;5093322;28;20144;-84
2022/08/29 12:19:08;;;;;;;20.13;7.00;;;25.80;54.00;;;;;;5094120;28;20020;-86
2022/08/29 12:21:38;;;;;;;21.10;7.90;;;25.80;54.20;;;;;;5094251;28;20081;-86
2022/08/29 12:24:28;;;;;;;16.55;7.47;;;25.80;54.60;;;;;;5094080;28;20043;-83
2022/08/29 12:26:54;;;;;;;17.95;7.88;;;25.90;54.80;;;;;;5076551;28;20763;-86
2022/08/29 12:29:43;;;;;;;25.75;7.38;;;25.80;55.40;;;;;;5075027;28;20062;-86
2022/08/29 12:32:33;;;;;;;22.42;6.32;;;25.80;55.70;;;;;;5091641;28;20392;-85
2022/08/29 12:35:07;;;;;;;21.52;6.97;;;25.70;55.70;;;;;;5092649;28;20429;-86
2022/08/29 12:37:45;;;;;;;18.55;6.55;;;25.60;56.20;;;;;;5093381;28;20081;-84
2022/08/29 12:40:30;;;;;;;19.30;7.18;;;25.50;56.50;;;;;;5092839;28;20022;-87
2022/08/29 12:43:26;;;;;;;20.20;7.03;;;25.40;56.90;;;;;;5094700;28;20077;-85
2022/08/29 12:45:54;;;;;;;15.68;6.45;;;25.30;57.10;;;;;;5085172;28;20020;-86
2022/08/29 12:48:30;;;;;;;18.52;5.65;;;25.40;57.50;;;;;;5060048;28;20047;-86
2022/08/29 12:50:59;;;;;;;15.75;5.90;;;25.50;57.00;;;;;;5094000;28;20020;-85
2022/08/29 12:53:32;;;;;;;21.02;7.72;;;25.50;57.10;;;;;;5098642;28;20052;-85
2022/08/29 12:56:24;;;;;;;20.42;7.22;;;25.50;57.10;;;;;;5098385;28;20366;-84
2022/08/29 12:58:50;;;;;;;15.80;6.53;;;25.50;56.90;;;;;;5075084;28;20040;-85
2022/08/29 13:01:36;;;;;;;11.02;6.40;;;25.60;57.10;;;;;;5099939;28;20020;-86
2022/08/29 13:04:13;;;;;;;14.90;6.13;;;25.70;56.80;;;;;;5099738;28;20034;-85